Deerfield, WI

12:24 PM CDT on April 27, 2015 (GMT -0500)
Cambridge | | Change Station
CLOSE
Current Station
Personal Weather Station
Location: Cambridge, WI
Elevation: 883 ft
Nearby Weather Stations

Elev 883 ft 43.00 °N, 89.01 °W | Updated 17 seconds ago

Clear
Clear
61.9 °F
Feels Like 61.9 °F
N
6.0
Wind Variable Wind from NE

Today
High -- | Low -- °F
--% Chance of Precip.
Yesterday
High -- | Low -- °F
Precip. -- in
5:56 AM 7:52 PM
Waxing Gibbous, 66% visible
Pressure 30.15 in
Visibility 10.0 miles
Clouds Few 25000 ft
Dew Point 38 °F
Humidity 41%
Rainfall -999.00 in
Snow Depth Not available.
UV 9 out of 12
Pollen 10.40 out of 12
Air Quality Not available.
Flu Activity Local Activity
METAR KMSN 271653Z 01011G16KT 10SM FEW250 14/01 A3014 RMK AO2 SLP209 T01440006

More Conditions Fewer Conditions

Pressure 30.15 in
Visibility 10.0 miles
Clouds Few 25000 ft
Dew Point 38 °F
Humidity 41%
Rainfall -999.00 in
Snow Depth Not available.
UV 9 out of 12
Pollen 10.40 out of 12
Air Quality Not available.
Flu Activity Local Activity
METAR KMSN 271653Z 01011G16KT 10SM FEW250 14/01 A3014 RMK AO2 SLP209 T01440006

More Conditions Fewer Conditions

10-Day Weather Forecast

Almanac

Astronomy

Apr. 27, 2015 Rise Set
Actual Time
Civil Twilight
Nautical Twilight
Astronomical Twilight
Moon
Length of Visible Light
Length of Day
Tomorrow will be .
, % of the Moon is Illuminated

Today's Extremes

State Highs State Lows

Community

WunderPhotos

Upload Photos

1,817,353 photos uploaded!

WunderBlogs® & News

Nearby

Air Quality

  Air Quality AQ Index Pollutant
Not available.

Snow Depth

Station Depth Elevation

Earthquake Activity

City Distance Mag. Time & Date
Minimum magnitude displayed is 2.5.

Coastal Water Temperatures

Place Temperature

Stations

Nearby Weather Stations

Station Location Temp. Windchill Dew Point Humidity Wind Precip. Elev Updated Type